createdAt,value
2022-12-01T00:00:02.604Z,44.83
2022-12-01T00:02:32.303Z,47.17
2022-12-01T00:04:59.689Z,43.65
2022-12-01T00:07:27.107Z,46.08
2022-12-01T00:10:12.255Z,46.33
2022-12-01T00:12:43.384Z,46.88
2022-12-01T00:15:11.394Z,44.78
2022-12-01T00:20:06.696Z,45.00
2022-12-01T00:22:34.059Z,43.60
2022-12-01T00:25:01.436Z,44.45
2022-12-01T00:27:28.818Z,45.78
2022-12-01T00:29:57.548Z,45.78
2022-12-01T00:32:24.903Z,45.15
2022-12-01T00:34:52.257Z,45.95
2022-12-01T00:37:19.798Z,43.00
2022-12-01T00:39:47.523Z,35.35
2022-12-01T00:44:42.393Z,37.33
2022-12-01T00:47:11.089Z,37.92
2022-12-01T00:49:38.452Z,41.15
2022-12-01T00:52:06.014Z,37.95
2022-12-01T00:54:33.452Z,41.92
2022-12-01T00:57:00.840Z,42.70
2022-12-01T00:59:28.209Z,40.72
2022-12-01T01:01:55.685Z,42.05
2022-12-01T01:04:24.457Z,43.97
2022-12-01T01:06:52.428Z,41.40
2022-12-01T01:11:46.991Z,42.22
2022-12-01T01:14:14.445Z,43.88
2022-12-01T01:16:41.914Z,43.53
2022-12-01T01:19:09.340Z,42.05
2022-12-01T01:21:38.065Z,42.95
2022-12-01T01:24:05.854Z,37.70
2022-12-01T01:26:33.286Z,37.47
2022-12-01T01:29:02.405Z,37.78
2022-12-01T01:31:30.621Z,38.78
2022-12-01T01:33:58.469Z,35.70
2022-12-01T01:36:26.263Z,35.92
2022-12-01T01:38:55.446Z,33.30
2022-12-01T01:41:23.250Z,33.97
2022-12-01T01:43:51.619Z,35.03
2022-12-01T01:46:20.410Z,34.83
2022-12-01T01:48:49.227Z,34.92
2022-12-01T01:51:18.312Z,35.08
2022-12-01T01:53:46.356Z,35.50
2022-12-01T01:56:15.074Z,35.90
2022-12-01T01:58:42.662Z,33.03
2022-12-01T02:01:10.107Z,33.30
2022-12-01T02:03:39.292Z,32.70
2022-12-01T02:06:07.530Z,33.75
2022-12-01T02:08:35.841Z,32.80
2022-12-01T02:11:17.227Z,30.40
2022-12-01T02:13:51.445Z,32.13
2022-12-01T02:16:24.126Z,31.38
2022-12-01T02:18:56.340Z,30.38
2022-12-01T02:21:34.090Z,30.63
2022-12-01T02:26:34.814Z,30.00
2022-12-01T02:29:11.886Z,31.17
2022-12-01T02:31:43.930Z,30.35
2022-12-01T02:34:14.328Z,29.27
2022-12-01T02:36:46.539Z,30.25
2022-12-01T02:39:19.677Z,30.20
2022-12-01T02:41:51.014Z,29.95
2022-12-01T02:44:21.054Z,29.52
2022-12-01T02:46:53.051Z,31.58
2022-12-01T02:49:25.516Z,30.63
2022-12-01T02:51:53.712Z,28.40
2022-12-01T02:54:21.974Z,30.55
2022-12-01T02:56:52.472Z,30.35
2022-12-01T02:59:20.033Z,30.58
2022-12-01T03:01:57.447Z,31.35
2022-12-01T03:04:39.996Z,32.08
2022-12-01T03:07:11.970Z,30.70
2022-12-01T03:09:46.550Z,28.67
2022-12-01T03:12:16.282Z,31.55
2022-12-01T03:14:47.158Z,31.02
2022-12-01T03:17:17.500Z,31.35
2022-12-01T03:19:48.903Z,30.48
2022-12-01T03:22:22.870Z,30.27
2022-12-01T03:24:50.336Z,31.08
2022-12-01T03:27:19.594Z,32.58
2022-12-01T03:29:49.537Z,30.38
2022-12-01T03:32:20.043Z,31.52
2022-12-01T03:34:50.770Z,32.58
2022-12-01T03:37:21.698Z,30.55
2022-12-01T03:39:52.086Z,30.83
2022-12-01T03:42:24.652Z,30.88
2022-12-01T03:44:55.150Z,28.02
2022-12-01T03:47:25.109Z,26.98
2022-12-01T03:49:53.358Z,26.27
2022-12-01T03:52:24.926Z,27.10
2022-12-01T03:54:56.340Z,25.02
2022-12-01T03:57:27.609Z,26.33
2022-12-01T03:59:55.206Z,25.77
2022-12-01T04:02:27.434Z,25.92
2022-12-01T04:04:54.882Z,26.27
2022-12-01T04:07:22.885Z,26.25
2022-12-01T04:09:50.643Z,23.38
2022-12-01T04:12:32.742Z,24.35
2022-12-01T04:15:00.682Z,24.83
2022-12-01T04:19:56.667Z,24.58
2022-12-01T04:22:24.398Z,23.40
2022-12-01T04:24:51.984Z,23.45
2022-12-01T04:27:19.732Z,25.10
2022-12-01T04:29:47.926Z,28.20
2022-12-01T04:32:15.687Z,26.23
2022-12-01T04:34:43.097Z,30.05
2022-12-01T04:37:11.990Z,26.60
2022-12-01T04:39:39.417Z,30.42
2022-12-01T04:42:06.852Z,28.65
2022-12-01T04:44:35.282Z,29.88
2022-12-01T04:47:02.995Z,29.15
2022-12-01T04:49:30.654Z,30.70
2022-12-01T04:51:58.042Z,28.90
2022-12-01T04:54:26.793Z,26.73
2022-12-01T04:56:54.169Z,28.58
2022-12-01T04:59:21.774Z,26.63
2022-12-01T05:01:49.171Z,27.80
2022-12-01T05:04:16.756Z,28.90
2022-12-01T05:06:44.291Z,26.95
2022-12-01T05:09:17.151Z,25.88
2022-12-01T05:11:46.583Z,26.75
2022-12-01T05:14:13.915Z,25.70
2022-12-01T05:16:41.320Z,26.23
2022-12-01T05:19:26.335Z,26.65
2022-12-01T05:21:54.003Z,26.27
2022-12-01T05:24:22.059Z,24.63
2022-12-01T05:29:18.095Z,24.38
2022-12-01T05:31:45.944Z,26.67
2022-12-01T05:36:41.873Z,25.60
2022-12-01T05:39:09.351Z,26.55
2022-12-01T05:41:36.718Z,25.70
2022-12-01T05:44:04.210Z,27.05
2022-12-01T05:46:32.931Z,27.02
2022-12-01T05:49:00.334Z,27.25
2022-12-01T05:51:27.674Z,27.63
2022-12-01T05:53:55.030Z,27.65
2022-12-01T05:56:22.406Z,25.50
2022-12-01T05:58:49.821Z,27.27
2022-12-01T06:01:17.303Z,25.90
2022-12-01T06:03:46.072Z,25.02
2022-12-01T06:06:13.526Z,22.38
2022-12-01T06:08:40.915Z,24.83
2022-12-01T06:11:08.245Z,24.75
2022-12-01T06:13:35.593Z,24.25
2022-12-01T06:16:04.047Z,24.17
2022-12-01T06:18:32.263Z,25.27
2022-12-01T06:21:01.041Z,26.60
2022-12-01T06:23:30.543Z,27.70
2022-12-01T06:25:58.255Z,28.45
2022-12-01T06:28:25.627Z,31.38
2022-12-01T06:30:56.512Z,29.48
2022-12-01T06:33:26.787Z,28.85
2022-12-01T06:35:58.001Z,30.25
2022-12-01T06:38:26.721Z,29.17
2022-12-01T06:40:54.085Z,30.05
2022-12-01T06:43:21.439Z,30.73
2022-12-01T06:45:48.890Z,30.83
2022-12-01T06:48:16.321Z,30.55
2022-12-01T06:50:43.678Z,32.55
2022-12-01T06:53:11.832Z,32.78
2022-12-01T06:55:40.564Z,32.92
2022-12-01T06:58:08.118Z,32.92
2022-12-01T07:00:35.650Z,33.85
2022-12-01T07:03:02.991Z,34.63
2022-12-01T07:05:30.355Z,33.08
2022-12-01T07:07:59.680Z,35.45
2022-12-01T07:10:27.647Z,35.78
2022-12-01T07:12:57.977Z,34.22
2022-12-01T07:15:25.353Z,33.70
2022-12-01T07:17:52.739Z,31.50
2022-12-01T07:20:20.099Z,32.58
2022-12-01T07:22:47.449Z,32.42
2022-12-01T07:25:14.853Z,31.02
2022-12-01T07:27:42.218Z,31.90
2022-12-01T07:30:11.679Z,30.80
2022-12-01T07:32:39.039Z,31.10
2022-12-01T07:35:06.943Z,30.00
2022-12-01T07:40:01.865Z,30.33
2022-12-01T07:42:29.255Z,27.95
2022-12-01T07:44:56.611Z,25.08
2022-12-01T07:47:25.280Z,26.67
2022-12-01T07:49:52.690Z,26.67
2022-12-01T07:52:20.093Z,25.63
2022-12-01T07:54:47.506Z,22.52
2022-12-01T07:57:15.452Z,25.75
2022-12-01T07:59:42.793Z,26.63
2022-12-01T08:02:10.740Z,24.50
2022-12-01T08:04:39.531Z,24.45
2022-12-01T08:07:06.903Z,23.08
2022-12-01T08:09:34.271Z,23.15
2022-12-01T08:12:01.626Z,21.65
2022-12-01T08:14:28.990Z,22.92
2022-12-01T08:16:56.354Z,23.95
2022-12-01T08:19:25.549Z,23.80
2022-12-01T08:21:54.294Z,21.98
2022-12-01T08:24:21.717Z,22.60
2022-12-01T08:26:49.146Z,22.42
2022-12-01T08:29:20.201Z,22.48
2022-12-01T08:31:48.494Z,22.17
2022-12-01T08:36:43.115Z,22.25
2022-12-01T08:39:11.859Z,24.20
2022-12-01T08:41:39.218Z,24.05
2022-12-01T08:44:06.580Z,22.92
2022-12-01T08:46:35.298Z,23.77
2022-12-01T08:49:03.070Z,24.88
2022-12-01T08:51:30.497Z,23.20
2022-12-01T08:53:58.963Z,22.25
2022-12-01T08:56:28.768Z,23.38
2022-12-01T08:58:56.482Z,23.55
2022-12-01T09:01:25.537Z,23.60
2022-12-01T09:04:05.662Z,22.25
2022-12-01T09:06:34.491Z,22.48
2022-12-01T09:09:02.189Z,22.25
2022-12-01T09:11:30.939Z,21.35
2022-12-01T09:13:59.536Z,20.77
2022-12-01T09:16:27.051Z,22.20
2022-12-01T09:18:55.513Z,21.30
2022-12-01T09:21:24.310Z,20.83
2022-12-01T09:23:51.962Z,21.25
2022-12-01T09:26:19.934Z,21.50
2022-12-01T09:31:17.024Z,21.20
2022-12-01T09:33:45.595Z,21.00
2022-12-01T09:36:13.359Z,22.92
2022-12-01T09:38:40.718Z,22.85
2022-12-01T09:41:10.490Z,24.50
2022-12-01T09:43:40.890Z,24.83
2022-12-01T09:46:10.252Z,24.25
2022-12-01T09:48:42.631Z,24.45
2022-12-01T09:51:11.304Z,24.45
2022-12-01T09:53:38.787Z,26.48
2022-12-01T09:56:12.736Z,26.95
2022-12-01T09:58:40.446Z,27.30
2022-12-01T10:01:12.216Z,28.33
2022-12-01T10:03:45.483Z,27.45
2022-12-01T10:06:27.459Z,29.30
2022-12-01T10:09:00.551Z,28.67
2022-12-01T10:11:31.958Z,31.02
2022-12-01T10:13:59.823Z,31.77
2022-12-01T10:18:59.520Z,33.88
2022-12-01T10:21:33.113Z,32.67
2022-12-01T10:24:08.373Z,37.33
2022-12-01T10:26:38.988Z,37.08
2022-12-01T10:29:11.436Z,39.67
2022-12-01T10:31:44.047Z,41.17
2022-12-01T10:34:15.412Z,36.80
2022-12-01T10:36:42.791Z,43.58
2022-12-01T10:39:15.829Z,41.50
2022-12-01T10:41:43.394Z,44.70
2022-12-01T10:44:10.818Z,46.20
2022-12-01T10:46:41.747Z,45.15
2022-12-01T10:49:10.515Z,41.78
2022-12-01T10:51:52.935Z,43.88
2022-12-01T10:54:20.765Z,41.30
2022-12-01T10:56:49.562Z,41.72
2022-12-01T10:59:23.087Z,45.30
2022-12-01T11:01:50.766Z,45.47
2022-12-01T11:04:26.065Z,45.30
2022-12-01T11:06:54.972Z,45.88
2022-12-01T11:09:26.429Z,43.50
2022-12-01T11:11:57.647Z,46.50
2022-12-01T11:14:27.366Z,46.15
2022-12-01T11:16:54.806Z,47.70
2022-12-01T11:19:27.903Z,47.75
2022-12-01T11:21:57.641Z,47.92
2022-12-01T11:24:29.977Z,48.65
2022-12-01T11:26:58.314Z,48.35
2022-12-01T11:29:30.402Z,52.17
2022-12-01T11:31:58.458Z,51.60
2022-12-01T11:34:27.102Z,50.80
2022-12-01T11:36:56.330Z,48.50
2022-12-01T11:39:27.920Z,48.83
2022-12-01T11:41:56.551Z,49.10
2022-12-01T11:47:23.057Z,49.08
2022-12-01T11:49:53.801Z,49.65
2022-12-01T11:52:27.879Z,49.92
2022-12-01T11:54:57.692Z,48.08
2022-12-01T12:00:16.156Z,47.92
2022-12-01T12:02:49.279Z,49.97
2022-12-01T12:05:35.130Z,50.53
2022-12-01T12:08:09.207Z,47.83
2022-12-01T12:10:42.632Z,47.58
2022-12-01T12:13:20.706Z,50.22
2022-12-01T12:15:52.330Z,51.08
2022-12-01T12:18:26.789Z,48.45
2022-12-01T12:21:00.567Z,49.17
2022-12-01T12:23:45.643Z,51.92
2022-12-01T12:26:18.662Z,50.42
2022-12-01T12:28:53.765Z,50.20
2022-12-01T12:31:25.619Z,49.28
2022-12-01T12:34:07.698Z,50.35
2022-12-01T12:36:39.928Z,50.95
2022-12-01T12:39:16.563Z,51.00
2022-12-01T12:41:46.458Z,48.97
2022-12-01T12:44:22.070Z,59.20
2022-12-01T12:46:53.459Z,47.40
2022-12-01T12:49:27.259Z,49.45
2022-12-01T12:51:56.541Z,49.70
2022-12-01T12:54:28.382Z,49.85
2022-12-01T12:56:59.760Z,50.28
2022-12-01T12:59:28.963Z,50.20
2022-12-01T13:01:59.477Z,47.70
2022-12-01T13:04:28.999Z,48.13
2022-12-01T13:07:01.263Z,46.70
2022-12-01T13:09:30.483Z,44.63
2022-12-01T13:12:02.128Z,46.08
2022-12-01T13:14:31.723Z,44.17
2022-12-01T13:17:00.514Z,46.45
2022-12-01T13:19:30.460Z,46.22
2022-12-01T13:21:58.567Z,46.75
2022-12-01T13:24:28.513Z,48.03
2022-12-01T13:26:57.838Z,46.33
2022-12-01T13:29:26.774Z,46.53
2022-12-01T13:31:54.907Z,49.33
2022-12-01T13:34:25.435Z,49.50
2022-12-01T13:36:53.768Z,49.45
2022-12-01T13:39:22.644Z,48.78
2022-12-01T13:42:00.614Z,51.63
2022-12-01T13:44:31.402Z,46.78
2022-12-01T13:46:59.919Z,46.92
2022-12-01T13:49:33.673Z,45.90
2022-12-01T13:52:19.793Z,45.30
2022-12-01T13:55:00.985Z,46.63
2022-12-01T13:57:29.467Z,46.17
2022-12-01T14:00:06.766Z,46.70
2022-12-01T14:02:40.045Z,46.85
2022-12-01T14:05:26.183Z,42.95
2022-12-01T14:07:54.668Z,42.65
2022-12-01T14:10:26.938Z,44.63
2022-12-01T14:12:56.917Z,46.55
2022-12-01T14:15:36.457Z,43.90
2022-12-01T14:18:05.830Z,45.40
2022-12-01T14:20:34.438Z,44.63
2022-12-01T14:23:13.057Z,45.50
2022-12-01T14:25:40.909Z,44.60
2022-12-01T14:28:13.947Z,43.53
2022-12-01T14:31:02.570Z,45.05
2022-12-01T14:33:49.612Z,44.35
2022-12-01T14:36:21.411Z,43.83
2022-12-01T14:38:49.287Z,45.55
2022-12-01T14:41:22.648Z,44.92
2022-12-01T14:44:06.517Z,43.30
2022-12-01T14:46:40.376Z,47.28
2022-12-01T14:49:12.515Z,44.00
2022-12-01T14:51:42.616Z,47.45
2022-12-01T14:54:13.383Z,45.58
2022-12-01T14:56:41.722Z,49.10
2022-12-01T14:59:15.571Z,48.33
2022-12-01T15:01:43.016Z,46.90
2022-12-01T15:04:11.726Z,44.83
2022-12-01T15:06:39.151Z,45.22
2022-12-01T15:09:32.959Z,47.38
2022-12-01T15:11:56.412Z,47.17
2022-12-01T15:14:25.287Z,46.13
2022-12-01T15:16:52.821Z,45.40
2022-12-01T15:19:29.605Z,47.20
2022-12-01T15:21:57.056Z,47.70
2022-12-01T15:24:25.829Z,45.45
2022-12-01T15:26:57.835Z,49.08
2022-12-01T15:29:29.374Z,47.80
2022-12-01T15:31:58.773Z,47.75
2022-12-01T15:34:28.766Z,49.25
2022-12-01T15:36:56.717Z,48.42
2022-12-01T15:41:54.101Z,47.50
2022-12-01T15:44:23.456Z,46.30
2022-12-01T15:46:51.078Z,50.33
2022-12-01T15:49:19.487Z,46.30
2022-12-01T15:51:48.782Z,45.17
2022-12-01T15:54:19.428Z,45.83
2022-12-01T15:56:47.050Z,43.78
2022-12-01T15:59:22.399Z,44.53
2022-12-01T16:01:49.788Z,44.17
2022-12-01T16:04:18.533Z,42.50
2022-12-01T16:06:54.376Z,44.25
2022-12-01T16:09:23.514Z,42.88
2022-12-01T16:12:09.631Z,43.42
2022-12-01T16:14:37.487Z,44.15
2022-12-01T16:17:05.285Z,42.92
2022-12-01T16:19:33.324Z,42.70
2022-12-01T16:22:04.963Z,45.05
2022-12-01T16:24:33.764Z,43.95
2022-12-01T16:27:02.175Z,44.80
2022-12-01T16:29:30.541Z,44.53
2022-12-01T16:34:48.459Z,40.88
2022-12-01T16:37:17.635Z,42.85
2022-12-01T16:39:45.033Z,42.53
2022-12-01T16:42:13.471Z,41.97
2022-12-01T16:44:41.265Z,40.83
2022-12-01T16:47:13.978Z,39.80
2022-12-01T16:49:41.408Z,39.67
2022-12-01T16:52:36.552Z,39.63
2022-12-01T16:57:24.950Z,40.60
2022-12-01T16:59:52.320Z,38.28
2022-12-01T17:02:19.725Z,38.72
2022-12-01T17:04:47.100Z,40.13
2022-12-01T17:07:14.451Z,38.10
2022-12-01T17:09:41.832Z,36.65
2022-12-01T17:12:09.636Z,37.00
2022-12-01T17:14:38.331Z,37.42
2022-12-01T17:17:05.712Z,37.20
2022-12-01T17:19:33.096Z,38.25
2022-12-01T17:22:00.451Z,38.38
2022-12-01T17:24:27.908Z,36.25
2022-12-01T17:26:55.274Z,39.45
2022-12-01T17:29:22.652Z,38.40
2022-12-01T17:31:51.398Z,38.15
2022-12-01T17:34:18.836Z,38.40
2022-12-01T17:36:46.264Z,39.65
2022-12-01T17:39:13.626Z,40.50
2022-12-01T17:41:42.060Z,37.83
2022-12-01T17:44:09.401Z,37.05
2022-12-01T17:46:38.201Z,37.85
2022-12-01T17:49:09.298Z,41.15
2022-12-01T17:51:36.674Z,39.03
2022-12-01T17:54:04.220Z,40.50
2022-12-01T17:56:31.740Z,41.17
2022-12-01T17:58:59.157Z,40.30
2022-12-01T18:01:30.186Z,38.78
2022-12-01T18:03:58.078Z,40.53
2022-12-01T18:06:27.027Z,41.40
2022-12-01T18:08:54.942Z,39.75
2022-12-01T18:13:51.257Z,40.40
2022-12-01T18:16:20.142Z,41.92
2022-12-01T18:18:47.823Z,39.95
2022-12-01T18:21:17.123Z,42.97
2022-12-01T18:23:50.665Z,42.20
2022-12-01T18:26:18.141Z,40.42
2022-12-01T18:28:45.534Z,39.83
2022-12-01T18:31:14.148Z,39.20
2022-12-01T18:33:43.279Z,39.03
2022-12-01T18:36:12.316Z,39.47
2022-12-01T18:38:40.449Z,41.80
2022-12-01T18:41:09.566Z,38.42
2022-12-01T18:43:37.200Z,40.20
2022-12-01T18:46:05.247Z,37.67
2022-12-01T18:48:33.786Z,38.78
2022-12-01T18:51:02.332Z,36.97
2022-12-01T18:53:29.721Z,38.85
2022-12-01T18:55:57.395Z,37.95
2022-12-01T18:58:26.173Z,34.92
2022-12-01T19:00:53.695Z,36.72
2022-12-01T19:03:21.174Z,34.10
2022-12-01T19:05:48.649Z,33.35
2022-12-01T19:08:16.177Z,33.83
2022-12-01T19:10:43.631Z,29.02
2022-12-01T19:13:11.005Z,27.98
2022-12-01T19:15:39.773Z,26.85
2022-12-01T19:18:07.171Z,26.70
2022-12-01T19:23:02.452Z,25.60
2022-12-01T19:25:29.876Z,26.50
2022-12-01T19:27:57.343Z,27.50
2022-12-01T19:30:24.761Z,26.95
2022-12-01T19:32:54.869Z,25.85
2022-12-01T19:35:22.297Z,26.00
2022-12-01T19:37:49.988Z,27.17
2022-12-01T19:40:17.606Z,28.10
2022-12-01T19:42:45.383Z,26.23
2022-12-01T19:45:12.772Z,27.25
2022-12-01T19:47:40.149Z,29.98
2022-12-01T19:50:10.065Z,28.67
2022-12-01T19:52:37.728Z,30.13
2022-12-01T19:55:05.770Z,30.30
2022-12-01T19:57:35.497Z,34.67
2022-12-01T20:00:02.897Z,33.58
2022-12-01T20:02:39.463Z,31.48
2022-12-01T20:05:07.507Z,31.58
2022-12-01T20:07:36.393Z,31.60
2022-12-01T20:10:03.797Z,33.08
2022-12-01T20:12:31.243Z,32.78
2022-12-01T20:14:58.694Z,37.17
2022-12-01T20:17:26.071Z,34.50
2022-12-01T20:19:53.541Z,34.70
2022-12-01T20:22:20.905Z,35.70
2022-12-01T20:24:49.770Z,38.20
2022-12-01T20:27:17.355Z,36.92
2022-12-01T20:29:44.942Z,38.15
2022-12-01T20:32:13.304Z,38.75
2022-12-01T20:34:41.077Z,40.97
2022-12-01T20:37:10.764Z,39.60
2022-12-01T20:39:41.273Z,40.42
2022-12-01T20:42:10.383Z,39.88
2022-12-01T20:44:38.137Z,42.08
2022-12-01T20:47:05.514Z,39.08
2022-12-01T20:49:32.918Z,41.50
2022-12-01T20:52:00.303Z,41.22
2022-12-01T20:54:29.136Z,41.80
2022-12-01T20:56:57.138Z,38.78
2022-12-01T20:59:25.915Z,40.35
2022-12-01T21:01:53.422Z,37.85
2022-12-01T21:04:20.952Z,38.63
2022-12-01T21:06:49.838Z,39.72
2022-12-01T21:09:17.910Z,35.42
2022-12-01T21:12:04.215Z,38.03
2022-12-01T21:14:36.723Z,37.33
2022-12-01T21:17:06.440Z,36.17
2022-12-01T21:19:39.314Z,35.15
2022-12-01T21:22:11.001Z,34.13
2022-12-01T21:24:43.796Z,33.60
2022-12-01T21:27:13.503Z,32.70
2022-12-01T21:29:43.088Z,32.47
2022-12-01T21:32:13.666Z,35.97
2022-12-01T21:34:41.264Z,33.88
2022-12-01T21:37:11.889Z,37.13
2022-12-01T21:39:39.334Z,35.33
2022-12-01T21:42:17.687Z,38.17
2022-12-01T21:44:46.686Z,37.92
2022-12-01T21:47:17.238Z,36.38
2022-12-01T21:49:45.438Z,37.83
2022-12-01T21:52:15.230Z,37.45
2022-12-01T21:54:42.666Z,38.63
2022-12-01T21:57:24.453Z,39.28
2022-12-01T21:59:54.867Z,36.28
2022-12-01T22:02:30.585Z,38.80
2022-12-01T22:04:59.320Z,38.47
2022-12-01T22:07:27.805Z,42.08
2022-12-01T22:09:55.285Z,39.50
2022-12-01T22:12:25.314Z,39.67
2022-12-01T22:14:54.215Z,40.40
2022-12-01T22:17:22.030Z,41.72
2022-12-01T22:19:55.990Z,39.13
2022-12-01T22:22:24.501Z,40.53
2022-12-01T22:24:53.007Z,39.63
2022-12-01T22:27:28.084Z,42.63
2022-12-01T22:29:59.157Z,41.38
2022-12-01T22:32:33.928Z,44.45
2022-12-01T22:35:09.112Z,43.60
2022-12-01T22:37:39.006Z,44.10
2022-12-01T22:40:27.321Z,45.90
2022-12-01T22:42:54.705Z,44.88
2022-12-01T22:45:25.131Z,43.35
2022-12-01T22:47:56.536Z,43.60
2022-12-01T22:50:26.768Z,43.83
2022-12-01T22:52:54.722Z,42.13
2022-12-01T22:57:49.375Z,38.22
2022-12-01T23:00:18.100Z,42.05
2022-12-01T23:02:48.511Z,37.58
2022-12-01T23:05:21.478Z,35.75
2022-12-01T23:07:48.948Z,36.20
2022-12-01T23:10:17.190Z,35.45
2022-12-01T23:12:45.559Z,33.03
2022-12-01T23:15:24.178Z,34.97
2022-12-01T23:17:53.042Z,34.17
2022-12-01T23:20:29.212Z,35.08
2022-12-01T23:22:57.055Z,34.95
2022-12-01T23:27:52.340Z,34.22
2022-12-01T23:30:20.764Z,32.92
2022-12-01T23:32:54.500Z,35.70
2022-12-01T23:35:23.199Z,34.00
2022-12-01T23:37:50.593Z,33.88
2022-12-01T23:40:20.423Z,32.05
2022-12-01T23:42:47.833Z,31.60
2022-12-01T23:45:17.384Z,32.17
2022-12-01T23:47:44.799Z,32.00
2022-12-01T23:50:17.286Z,34.08
2022-12-01T23:52:45.991Z,36.97
2022-12-01T23:55:17.709Z,39.30
2022-12-01T23:57:45.127Z,40.05
